sensor_id;sensor_type;location;lat;lon;timestamp;temperature;humidity
49777;DHT22;35673;51.482;7.436;2023-04-03T00:00:12;3.10;99.90
49777;DHT22;35673;51.482;7.436;2023-04-03T00:02:38;3.10;99.90
49777;DHT22;35673;51.482;7.436;2023-04-03T00:05:03;3.00;99.90
49777;DHT22;35673;51.482;7.436;2023-04-03T00:07:30;3.00;99.90
49777;DHT22;35673;51.482;7.436;2023-04-03T00:09:55;3.00;99.90
49777;DHT22;35673;51.482;7.436;2023-04-03T00:12:21;3.00;99.90
49777;DHT22;35673;51.482;7.436;2023-04-03T00:14:46;3.00;99.90
49777;DHT22;35673;51.482;7.436;2023-04-03T00:17:12;3.00;99.90
49777;DHT22;35673;51.482;7.436;2023-04-03T00:19:37;3.00;99.90
49777;DHT22;35673;51.482;7.436;2023-04-03T00:22:03;2.90;99.90
49777;DHT22;35673;51.482;7.436;2023-04-03T00:24:28;2.90;99.90
49777;DHT22;35673;51.482;7.436;2023-04-03T00:26:53;2.90;99.90
49777;DHT22;35673;51.482;7.436;2023-04-03T00:29:19;2.90;99.90
49777;DHT22;35673;51.482;7.436;2023-04-03T00:31:44;2.80;99.90
49777;DHT22;35673;51.482;7.436;2023-04-03T00:34:10;2.90;99.90
49777;DHT22;35673;51.482;7.436;2023-04-03T00:36:36;2.80;99.90
49777;DHT22;35673;51.482;7.436;2023-04-03T00:39:01;2.80;99.90
49777;DHT22;35673;51.482;7.436;2023-04-03T00:41:27;2.70;99.90
49777;DHT22;35673;51.482;7.436;2023-04-03T00:43:52;2.70;99.90
49777;DHT22;35673;51.482;7.436;2023-04-03T00:46:18;2.60;99.90
49777;DHT22;35673;51.482;7.436;2023-04-03T00:48:44;2.60;99.90
49777;DHT22;35673;51.482;7.436;2023-04-03T00:51:14;2.60;99.90
49777;DHT22;35673;51.482;7.436;2023-04-03T00:53:43;2.60;99.90
49777;DHT22;35673;51.482;7.436;2023-04-03T00:56:10;2.60;99.90
49777;DHT22;35673;51.482;7.436;2023-04-03T00:58:38;2.60;99.90
49777;DHT22;35673;51.482;7.436;2023-04-03T01:01:07;2.60;99.90
49777;DHT22;35673;51.482;7.436;2023-04-03T01:03:33;2.50;99.90
49777;DHT22;35673;51.482;7.436;2023-04-03T01:05:59;2.50;99.90
49777;DHT22;35673;51.482;7.436;2023-04-03T01:08:24;2.50;99.90
49777;DHT22;35673;51.482;7.436;2023-04-03T01:10:50;2.60;99.90
49777;DHT22;35673;51.482;7.436;2023-04-03T01:13:20;2.60;99.90
49777;DHT22;35673;51.482;7.436;2023-04-03T01:15:46;2.60;99.90
49777;DHT22;35673;51.482;7.436;2023-04-03T01:18:11;2.70;99.90
49777;DHT22;35673;51.482;7.436;2023-04-03T01:20:50;2.80;99.90
49777;DHT22;35673;51.482;7.436;2023-04-03T01:23:24;2.90;99.90
49777;DHT22;35673;51.482;7.436;2023-04-03T01:25:52;2.90;99.90
49777;DHT22;35673;51.482;7.436;2023-04-03T01:30:56;3.00;99.90
49777;DHT22;35673;51.482;7.436;2023-04-03T01:33:23;3.00;99.90
49777;DHT22;35673;51.482;7.436;2023-04-03T01:35:49;3.00;99.90
49777;DHT22;35673;51.482;7.436;2023-04-03T01:38:14;3.10;99.90
49777;DHT22;35673;51.482;7.436;2023-04-03T01:40:40;3.10;99.90
49777;DHT22;35673;51.482;7.436;2023-04-03T01:43:05;3.10;99.90
49777;DHT22;35673;51.482;7.436;2023-04-03T01:45:31;3.10;99.90
49777;DHT22;35673;51.482;7.436;2023-04-03T01:47:56;3.10;99.90
49777;DHT22;35673;51.482;7.436;2023-04-03T01:50:22;3.00;99.90
49777;DHT22;35673;51.482;7.436;2023-04-03T01:52:47;3.00;99.90
49777;DHT22;35673;51.482;7.436;2023-04-03T01:55:13;3.00;99.90
49777;DHT22;35673;51.482;7.436;2023-04-03T01:57:38;3.00;99.90
49777;DHT22;35673;51.482;7.436;2023-04-03T02:00:04;3.00;99.90
49777;DHT22;35673;51.482;7.436;2023-04-03T02:02:29;3.00;99.90
49777;DHT22;35673;51.482;7.436;2023-04-03T02:04:55;3.00;99.90
49777;DHT22;35673;51.482;7.436;2023-04-03T02:07:20;3.00;99.90
49777;DHT22;35673;51.482;7.436;2023-04-03T02:09:46;2.90;99.90
49777;DHT22;35673;51.482;7.436;2023-04-03T02:12:12;2.90;99.90
49777;DHT22;35673;51.482;7.436;2023-04-03T02:14:37;2.90;99.90
49777;DHT22;35673;51.482;7.436;2023-04-03T02:17:02;3.00;99.90
49777;DHT22;35673;51.482;7.436;2023-04-03T02:19:30;2.90;99.90
49777;DHT22;35673;51.482;7.436;2023-04-03T02:21:56;2.90;99.90
49777;DHT22;35673;51.482;7.436;2023-04-03T02:24:21;2.90;99.90
49777;DHT22;35673;51.482;7.436;2023-04-03T02:26:47;2.90;99.90
49777;DHT22;35673;51.482;7.436;2023-04-03T02:29:12;2.90;99.90
49777;DHT22;35673;51.482;7.436;2023-04-03T02:31:38;2.90;99.90
49777;DHT22;35673;51.482;7.436;2023-04-03T02:34:03;2.90;99.90
49777;DHT22;35673;51.482;7.436;2023-04-03T02:36:29;2.80;99.90
49777;DHT22;35673;51.482;7.436;2023-04-03T02:38:54;2.90;99.90
49777;DHT22;35673;51.482;7.436;2023-04-03T02:41:20;2.90;99.90
49777;DHT22;35673;51.482;7.436;2023-04-03T02:43:46;2.90;99.90
49777;DHT22;35673;51.482;7.436;2023-04-03T02:46:11;2.80;99.90
49777;DHT22;35673;51.482;7.436;2023-04-03T02:48:39;2.80;99.90
49777;DHT22;35673;51.482;7.436;2023-04-03T02:51:05;2.70;99.90
49777;DHT22;35673;51.482;7.436;2023-04-03T02:53:30;2.70;99.90
49777;DHT22;35673;51.482;7.436;2023-04-03T02:55:55;2.70;99.90
49777;DHT22;35673;51.482;7.436;2023-04-03T02:58:21;2.70;99.90
49777;DHT22;35673;51.482;7.436;2023-04-03T03:00:46;2.70;99.90
49777;DHT22;35673;51.482;7.436;2023-04-03T03:03:12;2.70;99.90
49777;DHT22;35673;51.482;7.436;2023-04-03T03:05:39;2.70;99.90
49777;DHT22;35673;51.482;7.436;2023-04-03T03:08:04;2.60;99.90
49777;DHT22;35673;51.482;7.436;2023-04-03T03:10:30;2.60;99.90
49777;DHT22;35673;51.482;7.436;2023-04-03T03:12:55;2.60;99.90
49777;DHT22;35673;51.482;7.436;2023-04-03T03:15:21;2.60;99.90
49777;DHT22;35673;51.482;7.436;2023-04-03T03:17:46;2.60;99.90
49777;DHT22;35673;51.482;7.436;2023-04-03T03:20:12;2.60;99.90
49777;DHT22;35673;51.482;7.436;2023-04-03T03:22:39;2.60;99.90
49777;DHT22;35673;51.482;7.436;2023-04-03T03:25:05;2.50;99.90
49777;DHT22;35673;51.482;7.436;2023-04-03T03:27:31;2.50;99.90
49777;DHT22;35673;51.482;7.436;2023-04-03T03:29:56;2.50;99.90
49777;DHT22;35673;51.482;7.436;2023-04-03T03:32:22;2.50;99.90
49777;DHT22;35673;51.482;7.436;2023-04-03T03:34:47;2.50;99.90
49777;DHT22;35673;51.482;7.436;2023-04-03T03:37:13;2.50;99.90
49777;DHT22;35673;51.482;7.436;2023-04-03T03:39:38;2.50;99.90
49777;DHT22;35673;51.482;7.436;2023-04-03T03:42:04;2.50;99.90
49777;DHT22;35673;51.482;7.436;2023-04-03T03:44:29;2.40;99.90
49777;DHT22;35673;51.482;7.436;2023-04-03T03:46:55;2.40;99.90
49777;DHT22;35673;51.482;7.436;2023-04-03T03:49:21;2.40;99.90
49777;DHT22;35673;51.482;7.436;2023-04-03T03:51:46;2.40;99.90
49777;DHT22;35673;51.482;7.436;2023-04-03T03:54:12;2.30;99.90
49777;DHT22;35673;51.482;7.436;2023-04-03T03:56:38;2.30;99.90
49777;DHT22;35673;51.482;7.436;2023-04-03T03:59:03;2.30;99.90
49777;DHT22;35673;51.482;7.436;2023-04-03T04:01:29;2.30;99.90
49777;DHT22;35673;51.482;7.436;2023-04-03T04:03:55;2.30;99.90
49777;DHT22;35673;51.482;7.436;2023-04-03T04:06:20;2.30;99.90
49777;DHT22;35673;51.482;7.436;2023-04-03T04:08:46;2.30;99.90
49777;DHT22;35673;51.482;7.436;2023-04-03T04:11:12;2.20;99.90
49777;DHT22;35673;51.482;7.436;2023-04-03T04:13:38;2.20;99.90
49777;DHT22;35673;51.482;7.436;2023-04-03T04:16:03;2.10;99.90
49777;DHT22;35673;51.482;7.436;2023-04-03T04:18:29;2.10;99.90
49777;DHT22;35673;51.482;7.436;2023-04-03T04:20:54;2.10;99.90
49777;DHT22;35673;51.482;7.436;2023-04-03T04:23:20;2.10;99.90
49777;DHT22;35673;51.482;7.436;2023-04-03T04:25:46;2.00;99.90
49777;DHT22;35673;51.482;7.436;2023-04-03T04:28:11;2.00;99.90
49777;DHT22;35673;51.482;7.436;2023-04-03T04:30:37;2.00;99.90
49777;DHT22;35673;51.482;7.436;2023-04-03T04:33:02;2.00;99.90
49777;DHT22;35673;51.482;7.436;2023-04-03T04:35:28;1.90;99.90
49777;DHT22;35673;51.482;7.436;2023-04-03T04:37:53;2.00;99.90
49777;DHT22;35673;51.482;7.436;2023-04-03T04:40:19;1.90;99.90
49777;DHT22;35673;51.482;7.436;2023-04-03T04:42:45;1.90;99.90
49777;DHT22;35673;51.482;7.436;2023-04-03T04:45:10;1.90;99.90
49777;DHT22;35673;51.482;7.436;2023-04-03T04:47:36;1.90;99.90
49777;DHT22;35673;51.482;7.436;2023-04-03T04:50:01;1.90;99.90
49777;DHT22;35673;51.482;7.436;2023-04-03T04:52:27;1.90;99.90
49777;DHT22;35673;51.482;7.436;2023-04-03T04:54:52;1.90;99.90
49777;DHT22;35673;51.482;7.436;2023-04-03T04:57:18;1.90;99.90
49777;DHT22;35673;51.482;7.436;2023-04-03T04:59:43;1.90;99.90
49777;DHT22;35673;51.482;7.436;2023-04-03T05:02:09;1.80;99.90
49777;DHT22;35673;51.482;7.436;2023-04-03T05:04:34;1.80;99.90
49777;DHT22;35673;51.482;7.436;2023-04-03T05:07:00;1.80;99.90
49777;DHT22;35673;51.482;7.436;2023-04-03T05:09:25;1.80;99.90
49777;DHT22;35673;51.482;7.436;2023-04-03T05:11:51;1.80;99.90
49777;DHT22;35673;51.482;7.436;2023-04-03T05:14:16;1.80;99.90
49777;DHT22;35673;51.482;7.436;2023-04-03T05:16:42;1.80;99.90
49777;DHT22;35673;51.482;7.436;2023-04-03T05:19:07;1.80;99.90
49777;DHT22;35673;51.482;7.436;2023-04-03T05:21:33;1.80;99.90
49777;DHT22;35673;51.482;7.436;2023-04-03T05:23:59;1.80;99.90
49777;DHT22;35673;51.482;7.436;2023-04-03T05:26:24;1.80;99.90
49777;DHT22;35673;51.482;7.436;2023-04-03T05:28:51;1.80;99.90
49777;DHT22;35673;51.482;7.436;2023-04-03T05:31:16;1.80;99.90
49777;DHT22;35673;51.482;7.436;2023-04-03T05:33:42;1.80;99.90
49777;DHT22;35673;51.482;7.436;2023-04-03T05:36:08;1.90;99.90
49777;DHT22;35673;51.482;7.436;2023-04-03T05:38:33;1.90;99.90
49777;DHT22;35673;51.482;7.436;2023-04-03T05:40:59;1.90;99.90
49777;DHT22;35673;51.482;7.436;2023-04-03T05:43:24;2.00;99.90
49777;DHT22;35673;51.482;7.436;2023-04-03T05:45:51;2.00;99.90
49777;DHT22;35673;51.482;7.436;2023-04-03T05:48:16;2.00;99.90
49777;DHT22;35673;51.482;7.436;2023-04-03T05:50:42;2.00;99.90
49777;DHT22;35673;51.482;7.436;2023-04-03T05:53:16;2.00;99.90
49777;DHT22;35673;51.482;7.436;2023-04-03T05:55:43;2.00;99.90
49777;DHT22;35673;51.482;7.436;2023-04-03T05:58:08;2.00;99.90
49777;DHT22;35673;51.482;7.436;2023-04-03T06:00:34;2.10;99.90
49777;DHT22;35673;51.482;7.436;2023-04-03T06:02:59;2.10;99.90
49777;DHT22;35673;51.482;7.436;2023-04-03T06:05:25;2.10;99.90
49777;DHT22;35673;51.482;7.436;2023-04-03T06:07:50;2.10;99.90
49777;DHT22;35673;51.482;7.436;2023-04-03T06:10:16;2.20;99.90
49777;DHT22;35673;51.482;7.436;2023-04-03T06:12:41;2.20;99.90
49777;DHT22;35673;51.482;7.436;2023-04-03T06:15:07;2.20;99.90
49777;DHT22;35673;51.482;7.436;2023-04-03T06:17:33;2.20;99.90
49777;DHT22;35673;51.482;7.436;2023-04-03T06:19:59;2.20;99.90
49777;DHT22;35673;51.482;7.436;2023-04-03T06:22:24;2.30;99.90
49777;DHT22;35673;51.482;7.436;2023-04-03T06:24:51;2.30;99.90
49777;DHT22;35673;51.482;7.436;2023-04-03T06:27:16;2.30;99.90
49777;DHT22;35673;51.482;7.436;2023-04-03T06:29:42;2.40;99.90
49777;DHT22;35673;51.482;7.436;2023-04-03T06:32:08;2.50;99.90
49777;DHT22;35673;51.482;7.436;2023-04-03T06:34:33;2.50;99.90
49777;DHT22;35673;51.482;7.436;2023-04-03T06:36:59;2.50;99.90
49777;DHT22;35673;51.482;7.436;2023-04-03T06:39:25;2.60;99.90
49777;DHT22;35673;51.482;7.436;2023-04-03T06:41:50;2.60;99.90
49777;DHT22;35673;51.482;7.436;2023-04-03T06:44:16;2.70;99.90
49777;DHT22;35673;51.482;7.436;2023-04-03T06:46:42;2.80;99.90
49777;DHT22;35673;51.482;7.436;2023-04-03T06:49:08;3.00;99.90
49777;DHT22;35673;51.482;7.436;2023-04-03T06:51:34;3.00;99.90
49777;DHT22;35673;51.482;7.436;2023-04-03T06:54:00;3.10;99.90
49777;DHT22;35673;51.482;7.436;2023-04-03T06:56:26;3.20;99.90
49777;DHT22;35673;51.482;7.436;2023-04-03T06:58:52;3.30;99.90
49777;DHT22;35673;51.482;7.436;2023-04-03T07:01:20;3.50;99.90
49777;DHT22;35673;51.482;7.436;2023-04-03T07:03:46;3.60;99.90
49777;DHT22;35673;51.482;7.436;2023-04-03T07:06:13;3.70;99.90
49777;DHT22;35673;51.482;7.436;2023-04-03T07:08:39;3.80;99.90
49777;DHT22;35673;51.482;7.436;2023-04-03T07:11:05;3.90;99.50
49777;DHT22;35673;51.482;7.436;2023-04-03T07:13:30;4.00;97.50
49777;DHT22;35673;51.482;7.436;2023-04-03T07:15:56;4.10;99.90
49777;DHT22;35673;51.482;7.436;2023-04-03T07:18:22;4.20;99.90
49777;DHT22;35673;51.482;7.436;2023-04-03T07:20:47;4.20;98.60
49777;DHT22;35673;51.482;7.436;2023-04-03T07:23:13;4.30;96.20
49777;DHT22;35673;51.482;7.436;2023-04-03T07:25:42;4.50;96.70
49777;DHT22;35673;51.482;7.436;2023-04-03T07:28:08;4.60;96.60
49777;DHT22;35673;51.482;7.436;2023-04-03T07:30:34;4.70;93.60
49777;DHT22;35673;51.482;7.436;2023-04-03T07:33:00;4.90;93.50
49777;DHT22;35673;51.482;7.436;2023-04-03T07:35:26;5.00;93.10
49777;DHT22;35673;51.482;7.436;2023-04-03T07:37:51;5.10;92.90
49777;DHT22;35673;51.482;7.436;2023-04-03T07:40:17;5.30;92.60
49777;DHT22;35673;51.482;7.436;2023-04-03T07:42:43;5.50;92.00
49777;DHT22;35673;51.482;7.436;2023-04-03T07:45:08;5.60;91.60
49777;DHT22;35673;51.482;7.436;2023-04-03T07:47:34;5.70;91.50
49777;DHT22;35673;51.482;7.436;2023-04-03T07:50:00;5.80;91.30
49777;DHT22;35673;51.482;7.436;2023-04-03T07:52:25;5.90;91.00
49777;DHT22;35673;51.482;7.436;2023-04-03T07:54:51;6.10;90.30
49777;DHT22;35673;51.482;7.436;2023-04-03T07:57:16;6.20;89.90
49777;DHT22;35673;51.482;7.436;2023-04-03T07:59:42;6.30;88.80
49777;DHT22;35673;51.482;7.436;2023-04-03T08:02:09;6.30;85.90
49777;DHT22;35673;51.482;7.436;2023-04-03T08:04:34;6.30;87.30
49777;DHT22;35673;51.482;7.436;2023-04-03T08:07:00;6.50;88.30
49777;DHT22;35673;51.482;7.436;2023-04-03T08:09:25;6.60;87.80
49777;DHT22;35673;51.482;7.436;2023-04-03T08:11:51;6.60;87.50
49777;DHT22;35673;51.482;7.436;2023-04-03T08:14:18;6.80;84.50
49777;DHT22;35673;51.482;7.436;2023-04-03T08:16:45;6.90;86.60
49777;DHT22;35673;51.482;7.436;2023-04-03T08:19:11;6.80;84.90
49777;DHT22;35673;51.482;7.436;2023-04-03T08:21:39;6.90;83.40
49777;DHT22;35673;51.482;7.436;2023-04-03T08:24:04;7.10;83.50
49777;DHT22;35673;51.482;7.436;2023-04-03T08:26:31;7.20;82.50
49777;DHT22;35673;51.482;7.436;2023-04-03T08:28:56;7.30;82.10
49777;DHT22;35673;51.482;7.436;2023-04-03T08:31:22;7.60;83.20
49777;DHT22;35673;51.482;7.436;2023-04-03T08:33:47;7.70;81.40
49777;DHT22;35673;51.482;7.436;2023-04-03T08:36:17;8.00;80.30
49777;DHT22;35673;51.482;7.436;2023-04-03T08:38:43;8.00;79.90
49777;DHT22;35673;51.482;7.436;2023-04-03T08:41:16;8.10;76.10
49777;DHT22;35673;51.482;7.436;2023-04-03T08:46:16;8.50;75.40
49777;DHT22;35673;51.482;7.436;2023-04-03T08:48:44;8.70;75.80
49777;DHT22;35673;51.482;7.436;2023-04-03T08:51:14;8.90;74.10
49777;DHT22;35673;51.482;7.436;2023-04-03T08:53:42;8.90;77.10
49777;DHT22;35673;51.482;7.436;2023-04-03T08:56:09;9.00;75.30
49777;DHT22;35673;51.482;7.436;2023-04-03T08:58:46;9.20;74.30
49777;DHT22;35673;51.482;7.436;2023-04-03T09:01:34;9.40;73.40
49777;DHT22;35673;51.482;7.436;2023-04-03T09:04:00;9.50;72.80
49777;DHT22;35673;51.482;7.436;2023-04-03T09:06:26;9.60;72.20
49777;DHT22;35673;51.482;7.436;2023-04-03T09:14:09;9.70;72.00
49777;DHT22;35673;51.482;7.436;2023-04-03T09:16:48;10.00;71.50
49777;DHT22;35673;51.482;7.436;2023-04-03T09:19:28;10.40;71.30
49777;DHT22;35673;51.482;7.436;2023-04-03T09:24:32;10.90;69.30
49777;DHT22;35673;51.482;7.436;2023-04-03T09:27:01;11.20;67.70
49777;DHT22;35673;51.482;7.436;2023-04-03T09:29:28;11.30;67.50
49777;DHT22;35673;51.482;7.436;2023-04-03T09:32:00;11.30;68.60
49777;DHT22;35673;51.482;7.436;2023-04-03T09:34:35;11.50;66.70
49777;DHT22;35673;51.482;7.436;2023-04-03T09:37:02;11.40;68.30
49777;DHT22;35673;51.482;7.436;2023-04-03T09:39:31;11.30;68.50
49777;DHT22;35673;51.482;7.436;2023-04-03T09:41:59;11.30;68.70
49777;DHT22;35673;51.482;7.436;2023-04-03T09:44:35;11.20;76.80
49777;DHT22;35673;51.482;7.436;2023-04-03T09:49:45;11.60;66.50
49777;DHT22;35673;51.482;7.436;2023-04-03T09:52:22;11.70;67.00
49777;DHT22;35673;51.482;7.436;2023-04-03T09:54:48;12.00;65.20
49777;DHT22;35673;51.482;7.436;2023-04-03T09:57:14;11.80;68.00
49777;DHT22;35673;51.482;7.436;2023-04-03T09:59:47;11.60;70.50
49777;DHT22;35673;51.482;7.436;2023-04-03T10:04:52;11.80;66.50
49777;DHT22;35673;51.482;7.436;2023-04-03T10:07:28;12.20;68.50
49777;DHT22;35673;51.482;7.436;2023-04-03T10:10:10;12.40;66.20
49777;DHT22;35673;51.482;7.436;2023-04-03T10:12:40;12.60;61.10
49777;DHT22;35673;51.482;7.436;2023-04-03T10:15:12;12.90;61.50
49777;DHT22;35673;51.482;7.436;2023-04-03T10:30:40;11.90;66.90
49777;DHT22;35673;51.482;7.436;2023-04-03T10:33:23;11.50;61.10
49777;DHT22;35673;51.482;7.436;2023-04-03T10:46:23;11.50;63.50
49777;DHT22;35673;51.482;7.436;2023-04-03T10:48:54;11.30;63.40
49777;DHT22;35673;51.482;7.436;2023-04-03T10:59:08;12.40;60.60
49777;DHT22;35673;51.482;7.436;2023-04-03T11:01:39;12.60;59.20
49777;DHT22;35673;51.482;7.436;2023-04-03T11:04:06;13.00;60.00
49777;DHT22;35673;51.482;7.436;2023-04-03T11:06:37;13.20;61.00
49777;DHT22;35673;51.482;7.436;2023-04-03T11:09:16;13.30;62.10
49777;DHT22;35673;51.482;7.436;2023-04-03T11:11:44;13.50;58.70
49777;DHT22;35673;51.482;7.436;2023-04-03T11:14:11;13.40;58.00
49777;DHT22;35673;51.482;7.436;2023-04-03T11:16:48;12.80;62.00
49777;DHT22;35673;51.482;7.436;2023-04-03T11:19:18;12.10;65.90
49777;DHT22;35673;51.482;7.436;2023-04-03T11:24:32;12.30;63.30
49777;DHT22;35673;51.482;7.436;2023-04-03T11:26:58;12.20;60.00
49777;DHT22;35673;51.482;7.436;2023-04-03T11:29:31;12.40;59.50
49777;DHT22;35673;51.482;7.436;2023-04-03T11:34:45;13.50;57.10
49777;DHT22;35673;51.482;7.436;2023-04-03T11:37:17;14.10;57.90
49777;DHT22;35673;51.482;7.436;2023-04-03T11:39:48;14.10;54.20
49777;DHT22;35673;51.482;7.436;2023-04-03T11:47:48;14.30;59.10
49777;DHT22;35673;51.482;7.436;2023-04-03T11:53:44;14.60;57.40
49777;DHT22;35673;51.482;7.436;2023-04-03T11:56:29;14.60;61.50
49777;DHT22;35673;51.482;7.436;2023-04-03T11:58:33;14.20;61.90
49777;DHT22;35673;51.482;7.436;2023-04-03T12:01:03;14.10;56.30
49777;DHT22;35673;51.482;7.436;2023-04-03T12:16:24;15.60;56.80
49777;DHT22;35673;51.482;7.436;2023-04-03T12:21:21;16.90;52.40
49777;DHT22;35673;51.482;7.436;2023-04-03T12:34:53;16.40;60.30
49777;DHT22;35673;51.482;7.436;2023-04-03T12:37:39;16.40;60.80
49777;DHT22;35673;51.482;7.436;2023-04-03T12:45:19;16.20;51.90
49777;DHT22;35673;51.482;7.436;2023-04-03T12:47:45;16.20;53.70
49777;DHT22;35673;51.482;7.436;2023-04-03T12:50:17;16.00;56.40
49777;DHT22;35673;51.482;7.436;2023-04-03T12:52:45;16.40;58.80
49777;DHT22;35673;51.482;7.436;2023-04-03T12:55:16;15.90;66.00
49777;DHT22;35673;51.482;7.436;2023-04-03T12:57:42;16.20;71.40
49777;DHT22;35673;51.482;7.436;2023-04-03T13:02:52;17.70;55.20
49777;DHT22;35673;51.482;7.436;2023-04-03T13:05:18;17.90;59.10
49777;DHT22;35673;51.482;7.436;2023-04-03T13:07:45;17.20;52.20
49777;DHT22;35673;51.482;7.436;2023-04-03T13:10:15;17.00;56.80
49777;DHT22;35673;51.482;7.436;2023-04-03T13:12:49;17.20;50.10
49777;DHT22;35673;51.482;7.436;2023-04-03T13:15:17;17.00;53.10
49777;DHT22;35673;51.482;7.436;2023-04-03T13:17:43;16.60;53.30
49777;DHT22;35673;51.482;7.436;2023-04-03T13:20:14;17.50;55.30
49777;DHT22;35673;51.482;7.436;2023-04-03T13:22:44;18.90;60.30
49777;DHT22;35673;51.482;7.436;2023-04-03T13:25:13;19.20;49.80
49777;DHT22;35673;51.482;7.436;2023-04-03T13:27:39;20.20;52.20
49777;DHT22;35673;51.482;7.436;2023-04-03T13:30:30;21.60;44.60
49777;DHT22;35673;51.482;7.436;2023-04-03T13:32:54;23.50;44.70
49777;DHT22;35673;51.482;7.436;2023-04-03T13:37:55;26.20;41.60
49777;DHT22;35673;51.482;7.436;2023-04-03T13:40:21;27.00;43.00
49777;DHT22;35673;51.482;7.436;2023-04-03T13:42:48;27.90;47.20
49777;DHT22;35673;51.482;7.436;2023-04-03T13:45:24;28.70;55.10
49777;DHT22;35673;51.482;7.436;2023-04-03T13:47:53;28.10;56.10
49777;DHT22;35673;51.482;7.436;2023-04-03T13:50:24;28.70;53.90
49777;DHT22;35673;51.482;7.436;2023-04-03T13:52:59;28.30;55.10
49777;DHT22;35673;51.482;7.436;2023-04-03T13:55:28;28.60;62.40
49777;DHT22;35673;51.482;7.436;2023-04-03T13:57:56;28.50;56.30
49777;DHT22;35673;51.482;7.436;2023-04-03T14:00:34;28.30;54.40
49777;DHT22;35673;51.482;7.436;2023-04-03T14:03:00;28.80;54.50
49777;DHT22;35673;51.482;7.436;2023-04-03T14:05:26;29.10;57.80
49777;DHT22;35673;51.482;7.436;2023-04-03T14:07:52;28.80;55.90
49777;DHT22;35673;51.482;7.436;2023-04-03T14:10:18;29.40;55.10
49777;DHT22;35673;51.482;7.436;2023-04-03T14:12:44;29.40;60.40
49777;DHT22;35673;51.482;7.436;2023-04-03T14:15:20;28.60;58.00
49777;DHT22;35673;51.482;7.436;2023-04-03T14:17:47;29.70;55.40
49777;DHT22;35673;51.482;7.436;2023-04-03T14:20:16;30.60;60.00
49777;DHT22;35673;51.482;7.436;2023-04-03T14:22:42;30.40;55.00
49777;DHT22;35673;51.482;7.436;2023-04-03T14:25:07;30.30;54.90
49777;DHT22;35673;51.482;7.436;2023-04-03T14:27:38;30.10;56.40
49777;DHT22;35673;51.482;7.436;2023-04-03T14:30:05;29.80;59.80
49777;DHT22;35673;51.482;7.436;2023-04-03T14:32:31;30.50;48.50
49777;DHT22;35673;51.482;7.436;2023-04-03T14:34:56;32.00;53.40
49777;DHT22;35673;51.482;7.436;2023-04-03T14:37:27;32.00;51.30
49777;DHT22;35673;51.482;7.436;2023-04-03T14:39:56;31.80;48.60
49777;DHT22;35673;51.482;7.436;2023-04-03T14:42:23;32.00;52.30
49777;DHT22;35673;51.482;7.436;2023-04-03T14:44:49;31.20;55.60
49777;DHT22;35673;51.482;7.436;2023-04-03T14:47:18;30.70;48.60
49777;DHT22;35673;51.482;7.436;2023-04-03T14:49:45;31.90;47.00
49777;DHT22;35673;51.482;7.436;2023-04-03T14:52:25;32.20;50.50
49777;DHT22;35673;51.482;7.436;2023-04-03T14:54:51;32.80;48.50
49777;DHT22;35673;51.482;7.436;2023-04-03T14:57:16;33.60;46.50
49777;DHT22;35673;51.482;7.436;2023-04-03T14:59:45;32.60;50.90
49777;DHT22;35673;51.482;7.436;2023-04-03T15:04:52;31.20;68.10
49777;DHT22;35673;51.482;7.436;2023-04-03T15:07:17;31.20;50.60
49777;DHT22;35673;51.482;7.436;2023-04-03T15:09:43;31.70;48.10
49777;DHT22;35673;51.482;7.436;2023-04-03T15:12:09;32.20;48.50
49777;DHT22;35673;51.482;7.436;2023-04-03T15:14:35;31.80;51.30
49777;DHT22;35673;51.482;7.436;2023-04-03T15:17:01;32.10;47.70
49777;DHT22;35673;51.482;7.436;2023-04-03T15:21:53;33.00;52.90
49777;DHT22;35673;51.482;7.436;2023-04-03T15:24:18;33.40;56.90
49777;DHT22;35673;51.482;7.436;2023-04-03T15:26:44;33.40;52.30
49777;DHT22;35673;51.482;7.436;2023-04-03T15:29:10;33.80;58.40
49777;DHT22;35673;51.482;7.436;2023-04-03T15:31:35;34.20;51.70
49777;DHT22;35673;51.482;7.436;2023-04-03T15:34:01;34.20;50.00
49777;DHT22;35673;51.482;7.436;2023-04-03T15:36:27;34.30;54.10
49777;DHT22;35673;51.482;7.436;2023-04-03T15:38:53;34.50;52.50
49777;DHT22;35673;51.482;7.436;2023-04-03T15:41:18;34.50;50.60
49777;DHT22;35673;51.482;7.436;2023-04-03T15:43:44;34.00;50.80
49777;DHT22;35673;51.482;7.436;2023-04-03T15:46:09;33.70;51.70
49777;DHT22;35673;51.482;7.436;2023-04-03T15:48:35;32.70;51.20
49777;DHT22;35673;51.482;7.436;2023-04-03T15:51:01;31.70;53.50
49777;DHT22;35673;51.482;7.436;2023-04-03T15:53:26;30.30;56.20
49777;DHT22;35673;51.482;7.436;2023-04-03T15:55:52;28.30;57.00
49777;DHT22;35673;51.482;7.436;2023-04-03T15:58:17;28.10;60.30
49777;DHT22;35673;51.482;7.436;2023-04-03T16:00:43;27.70;57.30
49777;DHT22;35673;51.482;7.436;2023-04-03T16:03:10;27.60;58.80
49777;DHT22;35673;51.482;7.436;2023-04-03T16:17:46;23.10;48.70
49777;DHT22;35673;51.482;7.436;2023-04-03T16:20:13;23.00;44.90
49777;DHT22;35673;51.482;7.436;2023-04-03T16:22:38;23.30;48.20
49777;DHT22;35673;51.482;7.436;2023-04-03T16:25:05;23.80;47.30
49777;DHT22;35673;51.482;7.436;2023-04-03T16:27:31;24.10;45.10
49777;DHT22;35673;51.482;7.436;2023-04-03T16:29:56;24.90;46.70
49777;DHT22;35673;51.482;7.436;2023-04-03T16:32:22;25.40;46.20
49777;DHT22;35673;51.482;7.436;2023-04-03T16:34:48;25.90;51.50
49777;DHT22;35673;51.482;7.436;2023-04-03T16:37:14;26.20;48.10
49777;DHT22;35673;51.482;7.436;2023-04-03T16:39:40;26.10;42.20
49777;DHT22;35673;51.482;7.436;2023-04-03T16:42:05;26.60;42.30
49777;DHT22;35673;51.482;7.436;2023-04-03T16:44:31;26.60;40.80
49777;DHT22;35673;51.482;7.436;2023-04-03T16:46:56;26.70;39.40
49777;DHT22;35673;51.482;7.436;2023-04-03T16:49:22;27.20;43.70
49777;DHT22;35673;51.482;7.436;2023-04-03T16:51:48;26.60;42.80
49777;DHT22;35673;51.482;7.436;2023-04-03T16:54:14;26.50;45.60
49777;DHT22;35673;51.482;7.436;2023-04-03T16:56:39;26.30;42.70
49777;DHT22;35673;51.482;7.436;2023-04-03T16:59:05;26.40;44.00
49777;DHT22;35673;51.482;7.436;2023-04-03T17:01:30;26.20;46.00
49777;DHT22;35673;51.482;7.436;2023-04-03T17:03:56;25.70;45.70
49777;DHT22;35673;51.482;7.436;2023-04-03T17:06:22;25.50;45.80
49777;DHT22;35673;51.482;7.436;2023-04-03T17:08:49;25.00;45.80
49777;DHT22;35673;51.482;7.436;2023-04-03T17:11:15;24.90;46.00
49777;DHT22;35673;51.482;7.436;2023-04-03T17:13:40;24.20;46.90
49777;DHT22;35673;51.482;7.436;2023-04-03T17:16:07;23.00;47.10
49777;DHT22;35673;51.482;7.436;2023-04-03T17:18:33;21.60;51.60
49777;DHT22;35673;51.482;7.436;2023-04-03T17:23:25;17.80;51.40
49777;DHT22;35673;51.482;7.436;2023-04-03T17:25:51;17.10;53.80
49777;DHT22;35673;51.482;7.436;2023-04-03T17:28:18;16.00;58.20
49777;DHT22;35673;51.482;7.436;2023-04-03T17:33:10;14.10;56.80
49777;DHT22;35673;51.482;7.436;2023-04-03T17:35:35;13.30;61.20
49777;DHT22;35673;51.482;7.436;2023-04-03T17:38:00;12.60;59.80
49777;DHT22;35673;51.482;7.436;2023-04-03T17:40:26;12.30;60.40